KLM607 EHAM-OMDB
Flight info
| Callsign | KLM607 |
|---|---|
| Flight time | N/A |
| Altitude | 35000 |
| Route | ARNEM L620 HMM DCT OMELO DCT MAVOR DCT KUFIK DCT TEKVI DCT FOGRE DCT TUVNU DCT SOKRU/N0479F370 DCT ARGES DCT ARTAT UP975 EZS UG8 OTKEP UM688 RATVO M688 ULDUR/N0492F390 M688 SIDAD P975 SESRU M677 VUTEB |
| Aircraft | B77W/H-SDE1E2E3FGHIJ2J3J4J5M1RWXY/LB1D1 |
Departure
| Time | 2026-04-28 15:49 |
|---|---|
| Airport | Amsterdam Airport Schiphol (EHAM) |
Arrival
| Time | N/A |
|---|---|
| Airport | Dubai International Airport (OMDB) |
| Time | Latitude | Longitude | Altitude | Speed | Heading |
|---|---|---|---|---|---|
| 2026-04-28 15:10 | 52.31300 | 4.76313 | 4 ft | 0 kts | 253° |
| 2026-04-28 15:35 | 52.31300 | 4.76317 | 4 ft | 3 kts | 253° |
| 2026-04-28 15:35 | 52.31308 | 4.76359 | 27 ft | 4 kts | 254° |
| 2026-04-28 15:36 | 52.31315 | 4.76401 | 4 ft | 4 kts | 253° |
| 2026-04-28 15:36 | 52.31323 | 4.76444 | 5 ft | 4 kts | 252° |
| 2026-04-28 15:36 | 52.31332 | 4.76485 | 5 ft | 4 kts | 249° |
| 2026-04-28 15:36 | 52.31343 | 4.76525 | 6 ft | 4 kts | 232° |
| 2026-04-28 15:37 | 52.31352 | 4.76541 | 7 ft | 0 kts | 214° |
| 2026-04-28 15:37 | 52.31337 | 4.76507 | 6 ft | 4 kts | 245° |
| 2026-04-28 15:37 | 52.31335 | 4.76465 | 6 ft | 4 kts | 279° |
| 2026-04-28 15:37 | 52.31350 | 4.76434 | 4 ft | 4 kts | 322° |
| 2026-04-28 15:38 | 52.31369 | 4.76421 | 4 ft | 0 kts | 342° |
| 2026-04-28 15:42 | 52.31370 | 4.76421 | 4 ft | 0 kts | 342° |
| 2026-04-28 15:42 | 52.31382 | 4.76414 | 4 ft | 4 kts | 342° |
| 2026-04-28 15:42 | 52.31416 | 4.76396 | 4 ft | 7 kts | 340° |
| 2026-04-28 15:42 | 52.31448 | 4.76332 | 4 ft | 8 kts | 288° |
| 2026-04-28 15:43 | 52.31453 | 4.76218 | 4 ft | 12 kts | 267° |
| 2026-04-28 15:43 | 52.31448 | 4.76079 | 4 ft | 12 kts | 267° |
| 2026-04-28 15:43 | 52.31444 | 4.75939 | 4 ft | 12 kts | 267° |
| 2026-04-28 15:43 | 52.31440 | 4.75800 | 4 ft | 12 kts | 265° |
| 2026-04-28 15:44 | 52.31434 | 4.75660 | 4 ft | 12 kts | 266° |
| 2026-04-28 15:44 | 52.31429 | 4.75519 | 4 ft | 12 kts | 266° |
| 2026-04-28 15:44 | 52.31423 | 4.75380 | 4 ft | 12 kts | 266° |
| 2026-04-28 15:44 | 52.31418 | 4.75242 | 4 ft | 12 kts | 266° |
| 2026-04-28 15:45 | 52.31414 | 4.75102 | 4 ft | 12 kts | 266° |
| 2026-04-28 15:45 | 52.31409 | 4.74962 | 4 ft | 12 kts | 267° |
| 2026-04-28 15:45 | 52.31404 | 4.74821 | 4 ft | 12 kts | 267° |
| 2026-04-28 15:45 | 52.31425 | 4.74698 | 4 ft | 12 kts | 321° |
| 2026-04-28 15:46 | 52.31504 | 4.74669 | 4 ft | 9 kts | 355° |
| 2026-04-28 15:46 | 52.31531 | 4.74666 | 4 ft | 1 kts | 355° |
| 2026-04-28 15:46 | 52.31552 | 4.74663 | 4 ft | 6 kts | 356° |
| 2026-04-28 15:46 | 52.31591 | 4.74662 | 4 ft | 6 kts | 4° |
| 2026-04-28 15:47 | 52.31631 | 4.74679 | 4 ft | 7 kts | 23° |
| 2026-04-28 15:47 | 52.31661 | 4.74743 | 4 ft | 8 kts | 71° |
| 2026-04-28 15:47 | 52.31667 | 4.74796 | 4 ft | 0 kts | 82° |
| 2026-04-28 15:48 | 52.31668 | 4.74800 | 4 ft | 1 kts | 83° |
| 2026-04-28 15:48 | 52.31675 | 4.74945 | 2 ft | 33 kts | 86° |
| 2026-04-28 15:49 | 52.31709 | 4.75924 | 3 ft | 140 kts | 86° |
| 2026-04-28 15:49 | 52.31755 | 4.77947 | 400 ft | 196 kts | 88° |
| 2026-04-28 15:49 | 52.31787 | 4.80159 | 1897 ft | 193 kts | 84° |
| 2026-04-28 15:49 | 52.31879 | 4.82450 | 2707 ft | 209 kts | 84° |
| 2026-04-28 15:50 | 52.31974 | 4.84884 | 3166 ft | 221 kts | 84° |
| 2026-04-28 15:50 | 52.31890 | 4.87438 | 3527 ft | 234 kts | 104° |
| 2026-04-28 15:50 | 52.31228 | 4.89931 | 3986 ft | 243 kts | 111° |